sensor_id;sensor_type;location;lat;lon;timestamp;P1;durP1;ratioP1;P2;durP2;ratioP2
70840;SDS011;58465;51.534;9.934;2022-08-20T00:02:16;3.58;;;1.90;;
70840;SDS011;58465;51.534;9.934;2022-08-20T00:04:41;2.65;;;2.10;;
70840;SDS011;58465;51.534;9.934;2022-08-20T00:07:06;2.13;;;1.80;;
70840;SDS011;58465;51.534;9.934;2022-08-20T00:09:31;2.40;;;1.52;;
70840;SDS011;58465;51.534;9.934;2022-08-20T00:11:58;3.53;;;1.77;;
70840;SDS011;58465;51.534;9.934;2022-08-20T00:14:25;2.95;;;1.85;;
70840;SDS011;58465;51.534;9.934;2022-08-20T00:16:50;2.90;;;1.48;;
70840;SDS011;58465;51.534;9.934;2022-08-20T00:19:15;2.83;;;1.88;;
70840;SDS011;58465;51.534;9.934;2022-08-20T00:21:42;3.90;;;1.90;;
70840;SDS011;58465;51.534;9.934;2022-08-20T00:24:08;3.40;;;1.80;;
70840;SDS011;58465;51.534;9.934;2022-08-20T00:26:33;3.78;;;1.63;;
70840;SDS011;58465;51.534;9.934;2022-08-20T00:28:59;3.88;;;1.98;;
70840;SDS011;58465;51.534;9.934;2022-08-20T00:31:24;3.67;;;2.00;;
70840;SDS011;58465;51.534;9.934;2022-08-20T00:33:50;3.63;;;2.60;;
70840;SDS011;58465;51.534;9.934;2022-08-20T00:36:16;3.60;;;2.42;;
70840;SDS011;58465;51.534;9.934;2022-08-20T00:38:42;5.70;;;2.22;;
70840;SDS011;58465;51.534;9.934;2022-08-20T00:41:11;3.97;;;2.10;;
70840;SDS011;58465;51.534;9.934;2022-08-20T00:43:45;3.30;;;1.88;;
70840;SDS011;58465;51.534;9.934;2022-08-20T00:46:28;6.15;;;2.03;;
70840;SDS011;58465;51.534;9.934;2022-08-20T00:48:54;5.80;;;2.20;;
70840;SDS011;58465;51.534;9.934;2022-08-20T00:51:38;2.97;;;1.95;;
70840;SDS011;58465;51.534;9.934;2022-08-20T00:54:19;5.88;;;2.00;;
70840;SDS011;58465;51.534;9.934;2022-08-20T00:56:55;2.80;;;1.90;;
70840;SDS011;58465;51.534;9.934;2022-08-20T00:59:26;2.03;;;1.63;;
70840;SDS011;58465;51.534;9.934;2022-08-20T01:01:54;2.55;;;1.90;;
70840;SDS011;58465;51.534;9.934;2022-08-20T01:04:22;3.95;;;2.47;;
70840;SDS011;58465;51.534;9.934;2022-08-20T01:06:50;4.80;;;2.15;;
70840;SDS011;58465;51.534;9.934;2022-08-20T01:09:15;4.20;;;2.55;;
70840;SDS011;58465;51.534;9.934;2022-08-20T01:11:40;4.25;;;2.30;;
70840;SDS011;58465;51.534;9.934;2022-08-20T01:14:07;2.58;;;1.95;;
70840;SDS011;58465;51.534;9.934;2022-08-20T01:19:15;3.50;;;2.03;;
70840;SDS011;58465;51.534;9.934;2022-08-20T01:24:16;7.50;;;2.33;;
70840;SDS011;58465;51.534;9.934;2022-08-20T01:26:50;6.50;;;2.10;;
70840;SDS011;58465;51.534;9.934;2022-08-20T01:29:19;7.47;;;2.20;;
70840;SDS011;58465;51.534;9.934;2022-08-20T01:31:49;4.45;;;2.30;;
70840;SDS011;58465;51.534;9.934;2022-08-20T01:34:16;5.10;;;2.15;;
70840;SDS011;58465;51.534;9.934;2022-08-20T01:36:44;4.10;;;2.40;;
70840;SDS011;58465;51.534;9.934;2022-08-20T01:39:16;5.93;;;2.30;;
70840;SDS011;58465;51.534;9.934;2022-08-20T01:44:39;4.53;;;2.33;;
70840;SDS011;58465;51.534;9.934;2022-08-20T01:49:44;4.82;;;2.30;;
70840;SDS011;58465;51.534;9.934;2022-08-20T01:52:14;5.95;;;2.97;;
70840;SDS011;58465;51.534;9.934;2022-08-20T01:54:48;3.40;;;2.13;;
70840;SDS011;58465;51.534;9.934;2022-08-20T01:57:15;3.88;;;2.60;;
70840;SDS011;58465;51.534;9.934;2022-08-20T01:59:42;5.38;;;2.05;;
70840;SDS011;58465;51.534;9.934;2022-08-20T02:02:08;6.78;;;2.30;;
70840;SDS011;58465;51.534;9.934;2022-08-20T02:04:34;4.38;;;2.33;;
70840;SDS011;58465;51.534;9.934;2022-08-20T02:07:01;3.78;;;2.50;;
70840;SDS011;58465;51.534;9.934;2022-08-20T02:09:30;3.70;;;2.60;;
70840;SDS011;58465;51.534;9.934;2022-08-20T02:11:58;5.25;;;2.65;;
70840;SDS011;58465;51.534;9.934;2022-08-20T02:14:25;4.50;;;2.45;;
70840;SDS011;58465;51.534;9.934;2022-08-20T02:16:51;2.70;;;2.20;;
70840;SDS011;58465;51.534;9.934;2022-08-20T02:19:18;3.08;;;2.00;;
70840;SDS011;58465;51.534;9.934;2022-08-20T02:21:51;3.45;;;2.35;;
70840;SDS011;58465;51.534;9.934;2022-08-20T02:24:20;3.75;;;2.47;;
70840;SDS011;58465;51.534;9.934;2022-08-20T02:26:46;3.65;;;2.75;;
70840;SDS011;58465;51.534;9.934;2022-08-20T02:29:13;3.35;;;2.58;;
70840;SDS011;58465;51.534;9.934;2022-08-20T02:31:43;3.95;;;2.10;;
70840;SDS011;58465;51.534;9.934;2022-08-20T02:34:10;6.07;;;2.30;;
70840;SDS011;58465;51.534;9.934;2022-08-20T02:36:38;4.07;;;2.33;;
70840;SDS011;58465;51.534;9.934;2022-08-20T02:39:06;3.75;;;2.40;;
70840;SDS011;58465;51.534;9.934;2022-08-20T02:41:34;3.10;;;2.30;;
70840;SDS011;58465;51.534;9.934;2022-08-20T02:44:00;6.03;;;2.25;;
70840;SDS011;58465;51.534;9.934;2022-08-20T02:46:26;4.85;;;2.30;;
70840;SDS011;58465;51.534;9.934;2022-08-20T02:48:53;4.88;;;2.50;;
70840;SDS011;58465;51.534;9.934;2022-08-20T02:51:19;7.55;;;2.50;;
70840;SDS011;58465;51.534;9.934;2022-08-20T02:53:44;5.15;;;2.03;;
70840;SDS011;58465;51.534;9.934;2022-08-20T02:56:10;4.75;;;2.28;;
70840;SDS011;58465;51.534;9.934;2022-08-20T02:58:36;5.97;;;2.45;;
70840;SDS011;58465;51.534;9.934;2022-08-20T03:01:02;6.63;;;2.85;;
70840;SDS011;58465;51.534;9.934;2022-08-20T03:03:30;3.53;;;2.60;;
70840;SDS011;58465;51.534;9.934;2022-08-20T03:05:56;5.80;;;2.85;;
70840;SDS011;58465;51.534;9.934;2022-08-20T03:08:23;3.85;;;2.97;;
70840;SDS011;58465;51.534;9.934;2022-08-20T03:10:49;3.42;;;2.80;;
70840;SDS011;58465;51.534;9.934;2022-08-20T03:13:16;7.63;;;2.75;;
70840;SDS011;58465;51.534;9.934;2022-08-20T03:15:45;6.25;;;2.50;;
70840;SDS011;58465;51.534;9.934;2022-08-20T03:18:14;4.03;;;3.03;;
70840;SDS011;58465;51.534;9.934;2022-08-20T03:20:40;5.80;;;3.60;;
70840;SDS011;58465;51.534;9.934;2022-08-20T03:23:06;10.48;;;6.93;;
70840;SDS011;58465;51.534;9.934;2022-08-20T03:25:31;3.25;;;2.78;;
70840;SDS011;58465;51.534;9.934;2022-08-20T03:27:57;4.20;;;2.70;;
70840;SDS011;58465;51.534;9.934;2022-08-20T03:30:24;3.80;;;2.45;;
70840;SDS011;58465;51.534;9.934;2022-08-20T03:32:50;5.53;;;2.67;;
70840;SDS011;58465;51.534;9.934;2022-08-20T03:35:17;5.68;;;2.92;;
70840;SDS011;58465;51.534;9.934;2022-08-20T03:37:44;7.05;;;3.40;;
70840;SDS011;58465;51.534;9.934;2022-08-20T03:40:11;4.78;;;3.30;;
70840;SDS011;58465;51.534;9.934;2022-08-20T03:42:38;4.78;;;3.13;;
70840;SDS011;58465;51.534;9.934;2022-08-20T03:45:04;4.25;;;3.08;;
70840;SDS011;58465;51.534;9.934;2022-08-20T03:47:31;6.00;;;3.60;;
70840;SDS011;58465;51.534;9.934;2022-08-20T03:49:57;6.18;;;3.78;;
70840;SDS011;58465;51.534;9.934;2022-08-20T03:52:23;4.82;;;3.45;;
70840;SDS011;58465;51.534;9.934;2022-08-20T03:54:48;8.02;;;3.60;;
70840;SDS011;58465;51.534;9.934;2022-08-20T03:57:14;7.88;;;3.35;;
70840;SDS011;58465;51.534;9.934;2022-08-20T03:59:41;4.93;;;3.40;;
70840;SDS011;58465;51.534;9.934;2022-08-20T04:02:08;5.28;;;3.45;;
70840;SDS011;58465;51.534;9.934;2022-08-20T04:04:35;4.93;;;2.60;;
70840;SDS011;58465;51.534;9.934;2022-08-20T04:07:12;6.65;;;3.85;;
70840;SDS011;58465;51.534;9.934;2022-08-20T04:09:49;12.40;;;3.70;;
70840;SDS011;58465;51.534;9.934;2022-08-20T04:12:14;6.43;;;3.20;;
70840;SDS011;58465;51.534;9.934;2022-08-20T04:14:39;12.02;;;3.90;;
70840;SDS011;58465;51.534;9.934;2022-08-20T04:17:06;8.20;;;4.22;;
70840;SDS011;58465;51.534;9.934;2022-08-20T04:19:34;5.70;;;3.83;;
70840;SDS011;58465;51.534;9.934;2022-08-20T04:22:00;9.52;;;5.50;;
70840;SDS011;58465;51.534;9.934;2022-08-20T04:24:26;5.32;;;4.15;;
70840;SDS011;58465;51.534;9.934;2022-08-20T04:26:52;8.25;;;6.28;;
70840;SDS011;58465;51.534;9.934;2022-08-20T04:29:18;8.05;;;5.32;;
70840;SDS011;58465;51.534;9.934;2022-08-20T04:31:44;7.43;;;5.20;;
70840;SDS011;58465;51.534;9.934;2022-08-20T04:34:10;7.25;;;5.20;;
70840;SDS011;58465;51.534;9.934;2022-08-20T04:36:35;8.95;;;5.30;;
70840;SDS011;58465;51.534;9.934;2022-08-20T04:39:01;6.13;;;4.68;;
70840;SDS011;58465;51.534;9.934;2022-08-20T04:41:26;8.40;;;5.25;;
70840;SDS011;58465;51.534;9.934;2022-08-20T04:43:52;8.55;;;5.32;;
70840;SDS011;58465;51.534;9.934;2022-08-20T04:46:19;7.35;;;4.47;;
70840;SDS011;58465;51.534;9.934;2022-08-20T04:48:49;12.60;;;6.95;;
70840;SDS011;58465;51.534;9.934;2022-08-20T04:51:14;9.38;;;5.55;;
70840;SDS011;58465;51.534;9.934;2022-08-20T04:53:40;7.95;;;4.97;;
70840;SDS011;58465;51.534;9.934;2022-08-20T04:56:06;9.02;;;5.97;;
70840;SDS011;58465;51.534;9.934;2022-08-20T04:58:33;7.18;;;4.57;;
70840;SDS011;58465;51.534;9.934;2022-08-20T05:01:01;9.55;;;5.15;;
70840;SDS011;58465;51.534;9.934;2022-08-20T05:03:29;15.27;;;8.40;;
70840;SDS011;58465;51.534;9.934;2022-08-20T05:05:55;26.52;;;9.35;;
70840;SDS011;58465;51.534;9.934;2022-08-20T05:08:22;19.13;;;5.82;;
70840;SDS011;58465;51.534;9.934;2022-08-20T05:10:49;14.43;;;6.32;;
70840;SDS011;58465;51.534;9.934;2022-08-20T05:13:15;13.48;;;6.43;;
70840;SDS011;58465;51.534;9.934;2022-08-20T05:15:41;13.65;;;7.15;;
70840;SDS011;58465;51.534;9.934;2022-08-20T05:18:09;9.95;;;6.93;;
70840;SDS011;58465;51.534;9.934;2022-08-20T05:20:36;23.73;;;10.80;;
70840;SDS011;58465;51.534;9.934;2022-08-20T05:23:04;16.08;;;8.05;;
70840;SDS011;58465;51.534;9.934;2022-08-20T05:25:32;58.00;;;19.33;;
70840;SDS011;58465;51.534;9.934;2022-08-20T05:28:02;30.42;;;12.50;;
70840;SDS011;58465;51.534;9.934;2022-08-20T05:30:34;23.35;;;10.18;;
70840;SDS011;58465;51.534;9.934;2022-08-20T05:33:02;14.32;;;7.43;;
70840;SDS011;58465;51.534;9.934;2022-08-20T05:35:29;16.88;;;7.72;;
70840;SDS011;58465;51.534;9.934;2022-08-20T05:37:55;11.93;;;7.75;;
70840;SDS011;58465;51.534;9.934;2022-08-20T05:40:21;12.57;;;8.20;;
70840;SDS011;58465;51.534;9.934;2022-08-20T05:42:48;14.90;;;8.98;;
70840;SDS011;58465;51.534;9.934;2022-08-20T05:45:14;14.68;;;8.38;;
70840;SDS011;58465;51.534;9.934;2022-08-20T05:47:41;13.13;;;8.70;;
70840;SDS011;58465;51.534;9.934;2022-08-20T05:50:07;13.50;;;8.30;;
70840;SDS011;58465;51.534;9.934;2022-08-20T05:52:33;19.40;;;9.20;;
70840;SDS011;58465;51.534;9.934;2022-08-20T05:54:59;18.63;;;11.05;;
70840;SDS011;58465;51.534;9.934;2022-08-20T05:57:24;30.55;;;14.93;;
70840;SDS011;58465;51.534;9.934;2022-08-20T05:59:50;30.02;;;14.88;;
70840;SDS011;58465;51.534;9.934;2022-08-20T06:02:15;25.25;;;11.25;;
70840;SDS011;58465;51.534;9.934;2022-08-20T06:04:59;17.98;;;11.13;;
70840;SDS011;58465;51.534;9.934;2022-08-20T06:07:25;16.48;;;9.30;;
70840;SDS011;58465;51.534;9.934;2022-08-20T06:09:50;15.68;;;9.63;;
70840;SDS011;58465;51.534;9.934;2022-08-20T06:12:16;16.67;;;10.57;;
70840;SDS011;58465;51.534;9.934;2022-08-20T06:14:42;19.13;;;11.50;;
70840;SDS011;58465;51.534;9.934;2022-08-20T06:17:10;25.75;;;15.90;;
70840;SDS011;58465;51.534;9.934;2022-08-20T06:19:37;25.00;;;15.02;;
70840;SDS011;58465;51.534;9.934;2022-08-20T06:22:04;22.95;;;15.77;;
70840;SDS011;58465;51.534;9.934;2022-08-20T06:24:30;29.98;;;17.17;;
70840;SDS011;58465;51.534;9.934;2022-08-20T06:26:59;26.52;;;17.67;;
70840;SDS011;58465;51.534;9.934;2022-08-20T06:29:26;26.38;;;16.95;;
70840;SDS011;58465;51.534;9.934;2022-08-20T06:31:52;24.70;;;17.08;;
70840;SDS011;58465;51.534;9.934;2022-08-20T06:34:19;27.52;;;16.63;;
70840;SDS011;58465;51.534;9.934;2022-08-20T06:36:44;28.63;;;18.13;;
70840;SDS011;58465;51.534;9.934;2022-08-20T06:39:13;29.98;;;16.83;;
70840;SDS011;58465;51.534;9.934;2022-08-20T06:41:39;23.65;;;16.35;;
70840;SDS011;58465;51.534;9.934;2022-08-20T06:44:05;25.30;;;17.08;;
70840;SDS011;58465;51.534;9.934;2022-08-20T06:46:34;30.30;;;16.77;;
70840;SDS011;58465;51.534;9.934;2022-08-20T06:49:01;24.75;;;16.77;;
70840;SDS011;58465;51.534;9.934;2022-08-20T06:51:27;26.88;;;16.95;;
70840;SDS011;58465;51.534;9.934;2022-08-20T06:53:53;29.73;;;18.67;;
70840;SDS011;58465;51.534;9.934;2022-08-20T06:56:19;25.67;;;17.40;;
70840;SDS011;58465;51.534;9.934;2022-08-20T06:58:44;28.08;;;17.30;;
70840;SDS011;58465;51.534;9.934;2022-08-20T07:01:10;28.90;;;19.02;;
70840;SDS011;58465;51.534;9.934;2022-08-20T07:03:38;29.60;;;18.67;;
70840;SDS011;58465;51.534;9.934;2022-08-20T07:06:04;31.75;;;19.60;;
70840;SDS011;58465;51.534;9.934;2022-08-20T07:08:30;27.95;;;18.85;;
70840;SDS011;58465;51.534;9.934;2022-08-20T07:10:56;36.40;;;22.75;;
70840;SDS011;58465;51.534;9.934;2022-08-20T07:13:21;29.17;;;19.95;;
70840;SDS011;58465;51.534;9.934;2022-08-20T07:15:47;31.13;;;18.60;;
70840;SDS011;58465;51.534;9.934;2022-08-20T07:18:13;27.52;;;17.60;;
70840;SDS011;58465;51.534;9.934;2022-08-20T07:20:39;25.42;;;17.05;;
70840;SDS011;58465;51.534;9.934;2022-08-20T07:23:05;28.65;;;18.33;;
70840;SDS011;58465;51.534;9.934;2022-08-20T07:25:32;23.90;;;15.90;;
70840;SDS011;58465;51.534;9.934;2022-08-20T07:28:05;26.08;;;17.73;;
70840;SDS011;58465;51.534;9.934;2022-08-20T07:30:32;29.45;;;19.33;;
70840;SDS011;58465;51.534;9.934;2022-08-20T07:33:18;29.83;;;19.10;;
70840;SDS011;58465;51.534;9.934;2022-08-20T07:35:44;28.48;;;18.73;;
70840;SDS011;58465;51.534;9.934;2022-08-20T07:38:16;28.13;;;18.42;;
70840;SDS011;58465;51.534;9.934;2022-08-20T07:40:49;30.73;;;18.60;;
70840;SDS011;58465;51.534;9.934;2022-08-20T07:43:25;28.85;;;18.65;;
70840;SDS011;58465;51.534;9.934;2022-08-20T07:45:50;26.27;;;17.02;;
70840;SDS011;58465;51.534;9.934;2022-08-20T07:48:20;27.33;;;19.02;;
70840;SDS011;58465;51.534;9.934;2022-08-20T07:50:45;27.92;;;17.25;;
70840;SDS011;58465;51.534;9.934;2022-08-20T07:53:13;25.63;;;17.60;;
70840;SDS011;58465;51.534;9.934;2022-08-20T07:55:39;29.60;;;18.63;;
70840;SDS011;58465;51.534;9.934;2022-08-20T07:58:08;25.63;;;16.48;;
70840;SDS011;58465;51.534;9.934;2022-08-20T08:00:35;25.00;;;16.23;;
70840;SDS011;58465;51.534;9.934;2022-08-20T08:03:01;29.98;;;19.10;;
70840;SDS011;58465;51.534;9.934;2022-08-20T08:05:28;27.30;;;17.35;;
70840;SDS011;58465;51.534;9.934;2022-08-20T08:07:54;22.63;;;15.73;;
70840;SDS011;58465;51.534;9.934;2022-08-20T08:10:20;21.58;;;14.45;;
70840;SDS011;58465;51.534;9.934;2022-08-20T08:12:48;23.42;;;13.35;;
70840;SDS011;58465;51.534;9.934;2022-08-20T08:15:18;22.30;;;15.30;;
70840;SDS011;58465;51.534;9.934;2022-08-20T08:17:46;20.00;;;14.40;;
70840;SDS011;58465;51.534;9.934;2022-08-20T08:20:13;19.27;;;13.50;;
70840;SDS011;58465;51.534;9.934;2022-08-20T08:22:40;18.50;;;13.27;;
70840;SDS011;58465;51.534;9.934;2022-08-20T08:25:08;19.40;;;13.57;;
70840;SDS011;58465;51.534;9.934;2022-08-20T08:27:35;19.02;;;12.70;;
70840;SDS011;58465;51.534;9.934;2022-08-20T08:30:01;22.55;;;14.13;;
70840;SDS011;58465;51.534;9.934;2022-08-20T08:32:28;19.80;;;12.77;;
70840;SDS011;58465;51.534;9.934;2022-08-20T08:34:56;19.33;;;12.98;;
70840;SDS011;58465;51.534;9.934;2022-08-20T08:37:21;20.13;;;11.82;;
70840;SDS011;58465;51.534;9.934;2022-08-20T08:39:47;18.90;;;12.45;;
70840;SDS011;58465;51.534;9.934;2022-08-20T08:45:12;17.90;;;12.40;;
70840;SDS011;58465;51.534;9.934;2022-08-20T08:47:40;14.20;;;10.57;;
70840;SDS011;58465;51.534;9.934;2022-08-20T08:50:06;15.02;;;11.23;;
70840;SDS011;58465;51.534;9.934;2022-08-20T08:52:39;14.43;;;10.45;;
70840;SDS011;58465;51.534;9.934;2022-08-20T08:55:06;14.45;;;10.85;;
70840;SDS011;58465;51.534;9.934;2022-08-20T08:57:40;13.23;;;9.88;;
70840;SDS011;58465;51.534;9.934;2022-08-20T09:00:08;16.95;;;11.02;;
70840;SDS011;58465;51.534;9.934;2022-08-20T09:02:39;15.38;;;11.27;;
70840;SDS011;58465;51.534;9.934;2022-08-20T09:05:17;12.55;;;9.10;;
70840;SDS011;58465;51.534;9.934;2022-08-20T09:07:48;14.52;;;9.90;;
70840;SDS011;58465;51.534;9.934;2022-08-20T09:10:16;19.60;;;9.98;;
70840;SDS011;58465;51.534;9.934;2022-08-20T09:12:42;12.60;;;9.60;;
70840;SDS011;58465;51.534;9.934;2022-08-20T09:15:08;9.32;;;6.47;;
70840;SDS011;58465;51.534;9.934;2022-08-20T09:17:34;7.22;;;5.45;;
70840;SDS011;58465;51.534;9.934;2022-08-20T09:20:00;7.63;;;5.20;;
70840;SDS011;58465;51.534;9.934;2022-08-20T09:22:25;7.82;;;5.43;;
70840;SDS011;58465;51.534;9.934;2022-08-20T09:24:51;6.03;;;4.93;;
70840;SDS011;58465;51.534;9.934;2022-08-20T09:27:17;5.80;;;4.85;;
70840;SDS011;58465;51.534;9.934;2022-08-20T09:29:43;21.38;;;12.82;;
70840;SDS011;58465;51.534;9.934;2022-08-20T09:32:09;7.15;;;5.72;;
70840;SDS011;58465;51.534;9.934;2022-08-20T09:34:38;18.08;;;14.38;;
70840;SDS011;58465;51.534;9.934;2022-08-20T09:37:05;17.00;;;9.52;;
70840;SDS011;58465;51.534;9.934;2022-08-20T09:39:31;10.52;;;6.43;;
70840;SDS011;58465;51.534;9.934;2022-08-20T09:42:05;8.88;;;6.95;;
70840;SDS011;58465;51.534;9.934;2022-08-20T09:44:32;8.20;;;6.53;;
70840;SDS011;58465;51.534;9.934;2022-08-20T09:46:57;9.45;;;6.95;;
70840;SDS011;58465;51.534;9.934;2022-08-20T09:49:23;10.18;;;7.35;;
70840;SDS011;58465;51.534;9.934;2022-08-20T09:51:48;12.60;;;9.00;;
70840;SDS011;58465;51.534;9.934;2022-08-20T09:54:13;10.13;;;7.63;;
70840;SDS011;58465;51.534;9.934;2022-08-20T09:56:38;30.55;;;19.38;;
70840;SDS011;58465;51.534;9.934;2022-08-20T09:59:04;11.20;;;7.65;;
70840;SDS011;58465;51.534;9.934;2022-08-20T10:01:29;9.63;;;7.20;;
70840;SDS011;58465;51.534;9.934;2022-08-20T10:03:56;9.75;;;7.65;;
70840;SDS011;58465;51.534;9.934;2022-08-20T10:06:22;10.85;;;7.60;;
70840;SDS011;58465;51.534;9.934;2022-08-20T10:08:47;9.68;;;6.50;;
70840;SDS011;58465;51.534;9.934;2022-08-20T10:11:13;10.23;;;7.82;;
70840;SDS011;58465;51.534;9.934;2022-08-20T10:13:38;10.20;;;7.43;;
70840;SDS011;58465;51.534;9.934;2022-08-20T10:16:04;11.80;;;7.83;;
70840;SDS011;58465;51.534;9.934;2022-08-20T10:18:29;9.73;;;7.80;;
70840;SDS011;58465;51.534;9.934;2022-08-20T10:20:55;9.23;;;7.15;;
70840;SDS011;58465;51.534;9.934;2022-08-20T10:23:20;10.27;;;6.88;;
70840;SDS011;58465;51.534;9.934;2022-08-20T10:25:45;7.82;;;6.40;;
70840;SDS011;58465;51.534;9.934;2022-08-20T10:28:11;10.95;;;7.20;;
70840;SDS011;58465;51.534;9.934;2022-08-20T10:30:36;9.68;;;6.90;;
70840;SDS011;58465;51.534;9.934;2022-08-20T10:33:02;12.77;;;9.30;;
70840;SDS011;58465;51.534;9.934;2022-08-20T10:35:27;10.25;;;6.45;;
70840;SDS011;58465;51.534;9.934;2022-08-20T10:37:53;10.80;;;7.32;;
70840;SDS011;58465;51.534;9.934;2022-08-20T10:40:18;9.57;;;7.07;;
70840;SDS011;58465;51.534;9.934;2022-08-20T10:42:44;16.98;;;11.77;;
70840;SDS011;58465;51.534;9.934;2022-08-20T10:45:10;11.25;;;8.27;;
70840;SDS011;58465;51.534;9.934;2022-08-20T10:47:38;7.22;;;5.70;;
70840;SDS011;58465;51.534;9.934;2022-08-20T10:50:05;5.75;;;4.68;;
70840;SDS011;58465;51.534;9.934;2022-08-20T10:52:33;7.00;;;5.38;;
70840;SDS011;58465;51.534;9.934;2022-08-20T10:54:58;6.10;;;4.22;;
70840;SDS011;58465;51.534;9.934;2022-08-20T10:57:25;6.78;;;4.30;;
70840;SDS011;58465;51.534;9.934;2022-08-20T10:59:53;5.82;;;3.90;;
70840;SDS011;58465;51.534;9.934;2022-08-20T11:02:19;4.82;;;3.70;;
70840;SDS011;58465;51.534;9.934;2022-08-20T11:04:46;4.32;;;3.55;;
70840;SDS011;58465;51.534;9.934;2022-08-20T11:07:16;4.10;;;3.60;;
70840;SDS011;58465;51.534;9.934;2022-08-20T11:09:48;4.55;;;3.55;;
70840;SDS011;58465;51.534;9.934;2022-08-20T11:12:15;4.25;;;3.10;;
70840;SDS011;58465;51.534;9.934;2022-08-20T11:14:42;5.38;;;4.25;;
70840;SDS011;58465;51.534;9.934;2022-08-20T11:17:08;3.17;;;2.00;;
70840;SDS011;58465;51.534;9.934;2022-08-20T11:19:39;2.72;;;2.53;;
70840;SDS011;58465;51.534;9.934;2022-08-20T11:22:05;3.17;;;2.30;;
70840;SDS011;58465;51.534;9.934;2022-08-20T11:24:31;2.60;;;1.90;;
70840;SDS011;58465;51.534;9.934;2022-08-20T11:26:57;3.08;;;2.10;;
70840;SDS011;58465;51.534;9.934;2022-08-20T11:29:22;2.92;;;2.10;;
70840;SDS011;58465;51.534;9.934;2022-08-20T11:31:48;3.40;;;2.03;;
70840;SDS011;58465;51.534;9.934;2022-08-20T11:34:14;4.05;;;1.77;;
70840;SDS011;58465;51.534;9.934;2022-08-20T11:36:40;1.90;;;1.70;;
70840;SDS011;58465;51.534;9.934;2022-08-20T11:39:06;1.98;;;1.70;;
70840;SDS011;58465;51.534;9.934;2022-08-20T11:41:31;2.08;;;1.77;;
70840;SDS011;58465;51.534;9.934;2022-08-20T11:43:57;1.92;;;1.65;;
70840;SDS011;58465;51.534;9.934;2022-08-20T11:46:22;2.08;;;1.50;;
70840;SDS011;58465;51.534;9.934;2022-08-20T11:48:47;3.33;;;1.80;;
70840;SDS011;58465;51.534;9.934;2022-08-20T11:51:13;1.92;;;1.30;;
70840;SDS011;58465;51.534;9.934;2022-08-20T11:53:38;2.33;;;1.65;;
70840;SDS011;58465;51.534;9.934;2022-08-20T11:56:04;2.33;;;1.40;;
70840;SDS011;58465;51.534;9.934;2022-08-20T11:58:29;2.20;;;1.70;;
70840;SDS011;58465;51.534;9.934;2022-08-20T12:00:55;2.67;;;2.17;;
70840;SDS011;58465;51.534;9.934;2022-08-20T12:03:20;5.28;;;2.35;;
70840;SDS011;58465;51.534;9.934;2022-08-20T12:05:45;9.20;;;1.85;;
70840;SDS011;58465;51.534;9.934;2022-08-20T12:08:12;2.53;;;2.00;;
70840;SDS011;58465;51.534;9.934;2022-08-20T12:10:39;2.10;;;1.90;;
70840;SDS011;58465;51.534;9.934;2022-08-20T12:13:05;2.25;;;1.75;;
70840;SDS011;58465;51.534;9.934;2022-08-20T12:15:34;3.53;;;1.80;;
70840;SDS011;58465;51.534;9.934;2022-08-20T12:18:04;3.17;;;2.28;;
70840;SDS011;58465;51.534;9.934;2022-08-20T12:20:33;2.97;;;1.58;;
70840;SDS011;58465;51.534;9.934;2022-08-20T12:22:59;1.95;;;1.67;;
70840;SDS011;58465;51.534;9.934;2022-08-20T12:25:25;1.77;;;1.60;;
70840;SDS011;58465;51.534;9.934;2022-08-20T12:27:51;3.17;;;1.33;;
70840;SDS011;58465;51.534;9.934;2022-08-20T12:30:20;1.45;;;1.30;;
70840;SDS011;58465;51.534;9.934;2022-08-20T12:32:50;39.17;;;29.73;;
70840;SDS011;58465;51.534;9.934;2022-08-20T12:35:19;24.85;;;20.70;;
70840;SDS011;58465;51.534;9.934;2022-08-20T12:37:45;2.92;;;1.85;;
70840;SDS011;58465;51.534;9.934;2022-08-20T12:40:12;3.80;;;1.80;;
70840;SDS011;58465;51.534;9.934;2022-08-20T12:42:43;6.45;;;2.72;;
70840;SDS011;58465;51.534;9.934;2022-08-20T12:45:08;1.40;;;1.13;;
70840;SDS011;58465;51.534;9.934;2022-08-20T12:47:36;1.38;;;1.10;;
70840;SDS011;58465;51.534;9.934;2022-08-20T12:50:05;1.52;;;0.93;;
70840;SDS011;58465;51.534;9.934;2022-08-20T12:52:33;2.88;;;1.92;;
70840;SDS011;58465;51.534;9.934;2022-08-20T12:55:00;1.75;;;1.25;;
70840;SDS011;58465;51.534;9.934;2022-08-20T12:57:35;1.50;;;1.35;;
70840;SDS011;58465;51.534;9.934;2022-08-20T13:00:06;2.88;;;2.25;;
70840;SDS011;58465;51.534;9.934;2022-08-20T13:02:36;2.55;;;1.70;;
70840;SDS011;58465;51.534;9.934;2022-08-20T13:05:05;1.83;;;1.40;;
70840;SDS011;58465;51.534;9.934;2022-08-20T13:07:32;4.15;;;3.00;;
70840;SDS011;58465;51.534;9.934;2022-08-20T13:09:58;4.70;;;1.85;;
70840;SDS011;58465;51.534;9.934;2022-08-20T13:12:27;2.63;;;1.55;;
70840;SDS011;58465;51.534;9.934;2022-08-20T13:14:52;7.00;;;5.38;;
70840;SDS011;58465;51.534;9.934;2022-08-20T13:17:18;2.08;;;1.60;;
70840;SDS011;58465;51.534;9.934;2022-08-20T13:19:44;2.67;;;1.50;;
70840;SDS011;58465;51.534;9.934;2022-08-20T13:22:10;3.40;;;1.40;;
70840;SDS011;58465;51.534;9.934;2022-08-20T13:24:36;1.88;;;1.20;;
70840;SDS011;58465;51.534;9.934;2022-08-20T13:27:10;1.42;;;1.20;;
70840;SDS011;58465;51.534;9.934;2022-08-20T13:29:37;1.70;;;1.23;;
70840;SDS011;58465;51.534;9.934;2022-08-20T13:32:03;1.75;;;1.35;;
70840;SDS011;58465;51.534;9.934;2022-08-20T13:34:29;2.78;;;1.73;;
70840;SDS011;58465;51.534;9.934;2022-08-20T13:36:54;4.28;;;1.58;;
70840;SDS011;58465;51.534;9.934;2022-08-20T13:39:20;2.25;;;1.60;;
70840;SDS011;58465;51.534;9.934;2022-08-20T13:41:46;8.80;;;6.20;;
70840;SDS011;58465;51.534;9.934;2022-08-20T13:44:11;1.80;;;1.40;;
70840;SDS011;58465;51.534;9.934;2022-08-20T13:46:37;2.63;;;1.50;;
70840;SDS011;58465;51.534;9.934;2022-08-20T13:49:02;2.55;;;1.77;;
70840;SDS011;58465;51.534;9.934;2022-08-20T13:51:28;3.40;;;1.90;;
70840;SDS011;58465;51.534;9.934;2022-08-20T13:53:53;3.30;;;1.50;;
70840;SDS011;58465;51.534;9.934;2022-08-20T13:56:19;2.00;;;1.70;;
70840;SDS011;58465;51.534;9.934;2022-08-20T13:58:44;3.78;;;2.80;;
70840;SDS011;58465;51.534;9.934;2022-08-20T14:01:15;5.38;;;2.83;;
70840;SDS011;58465;51.534;9.934;2022-08-20T14:03:40;2.92;;;2.15;;
70840;SDS011;58465;51.534;9.934;2022-08-20T14:06:06;2.47;;;1.70;;
70840;SDS011;58465;51.534;9.934;2022-08-20T14:08:33;4.75;;;2.38;;
70840;SDS011;58465;51.534;9.934;2022-08-20T14:10:59;4.10;;;2.10;;
70840;SDS011;58465;51.534;9.934;2022-08-20T14:13:25;4.28;;;2.05;;
70840;SDS011;58465;51.534;9.934;2022-08-20T14:15:51;3.05;;;1.88;;
70840;SDS011;58465;51.534;9.934;2022-08-20T14:18:17;4.40;;;2.28;;
70840;SDS011;58465;51.534;9.934;2022-08-20T14:20:42;9.45;;;5.22;;
70840;SDS011;58465;51.534;9.934;2022-08-20T14:23:08;2.67;;;1.90;;
70840;SDS011;58465;51.534;9.934;2022-08-20T14:25:34;3.20;;;1.52;;
70840;SDS011;58465;51.534;9.934;2022-08-20T14:28:10;2.95;;;1.33;;
70840;SDS011;58465;51.534;9.934;2022-08-20T14:30:36;5.47;;;1.20;;
70840;SDS011;58465;51.534;9.934;2022-08-20T14:33:01;5.05;;;1.45;;
70840;SDS011;58465;51.534;9.934;2022-08-20T14:35:27;2.90;;;1.33;;
70840;SDS011;58465;51.534;9.934;2022-08-20T14:37:52;3.10;;;1.85;;
70840;SDS011;58465;51.534;9.934;2022-08-20T14:40:20;3.20;;;2.00;;
70840;SDS011;58465;51.534;9.934;2022-08-20T14:42:48;3.03;;;2.05;;
70840;SDS011;58465;51.534;9.934;2022-08-20T14:45:14;3.33;;;1.73;;
70840;SDS011;58465;51.534;9.934;2022-08-20T14:47:41;3.45;;;1.73;;
70840;SDS011;58465;51.534;9.934;2022-08-20T14:50:11;4.32;;;3.00;;
70840;SDS011;58465;51.534;9.934;2022-08-20T14:52:43;3.67;;;2.45;;
70840;SDS011;58465;51.534;9.934;2022-08-20T14:55:12;2.80;;;1.73;;